sensor_id;sensor_type;location;lat;lon;timestamp;temperature;humidity
33271;DHT22;53180;51.344;6.152;2023-02-03T00:01:39;8.70;88.40
33271;DHT22;53180;51.344;6.152;2023-02-03T00:04:07;8.70;88.30
33271;DHT22;53180;51.344;6.152;2023-02-03T00:06:36;8.70;88.20
33271;DHT22;53180;51.344;6.152;2023-02-03T00:09:04;8.80;88.10
33271;DHT22;53180;51.344;6.152;2023-02-03T00:11:32;8.80;88.10
33271;DHT22;53180;51.344;6.152;2023-02-03T00:14:02;8.70;88.00
33271;DHT22;53180;51.344;6.152;2023-02-03T00:16:33;8.70;88.10
33271;DHT22;53180;51.344;6.152;2023-02-03T00:19:02;8.70;88.00
33271;DHT22;53180;51.344;6.152;2023-02-03T00:21:30;8.80;87.90
33271;DHT22;53180;51.344;6.152;2023-02-03T00:23:59;8.80;87.90
33271;DHT22;53180;51.344;6.152;2023-02-03T00:26:27;8.80;88.00
33271;DHT22;53180;51.344;6.152;2023-02-03T00:28:58;8.80;87.80
33271;DHT22;53180;51.344;6.152;2023-02-03T00:31:27;8.80;87.80
33271;DHT22;53180;51.344;6.152;2023-02-03T00:33:56;8.80;87.80
33271;DHT22;53180;51.344;6.152;2023-02-03T00:36:25;8.70;87.90
33271;DHT22;53180;51.344;6.152;2023-02-03T00:38:54;8.80;87.90
33271;DHT22;53180;51.344;6.152;2023-02-03T00:41:22;8.80;87.70
33271;DHT22;53180;51.344;6.152;2023-02-03T00:43:55;8.80;87.80
33271;DHT22;53180;51.344;6.152;2023-02-03T00:46:24;8.80;87.70
33271;DHT22;53180;51.344;6.152;2023-02-03T00:48:54;8.80;87.70
33271;DHT22;53180;51.344;6.152;2023-02-03T00:51:22;8.80;87.60
33271;DHT22;53180;51.344;6.152;2023-02-03T00:53:50;8.80;87.60
33271;DHT22;53180;51.344;6.152;2023-02-03T00:56:19;8.80;87.50
33271;DHT22;53180;51.344;6.152;2023-02-03T00:58:47;8.80;87.40
33271;DHT22;53180;51.344;6.152;2023-02-03T01:01:15;8.80;87.40
33271;DHT22;53180;51.344;6.152;2023-02-03T01:03:44;8.80;87.40
33271;DHT22;53180;51.344;6.152;2023-02-03T01:06:15;8.80;87.40
33271;DHT22;53180;51.344;6.152;2023-02-03T01:08:45;8.80;87.30
33271;DHT22;53180;51.344;6.152;2023-02-03T01:11:15;8.90;87.10
33271;DHT22;53180;51.344;6.152;2023-02-03T01:13:44;8.90;87.10
33271;DHT22;53180;51.344;6.152;2023-02-03T01:16:14;8.80;87.10
33271;DHT22;53180;51.344;6.152;2023-02-03T01:18:44;8.80;87.20
33271;DHT22;53180;51.344;6.152;2023-02-03T01:21:16;8.90;87.10
33271;DHT22;53180;51.344;6.152;2023-02-03T01:23:46;8.90;86.90
33271;DHT22;53180;51.344;6.152;2023-02-03T01:26:16;8.90;86.80
33271;DHT22;53180;51.344;6.152;2023-02-03T01:28:50;8.90;86.90
33271;DHT22;53180;51.344;6.152;2023-02-03T01:31:21;8.90;86.80
33271;DHT22;53180;51.344;6.152;2023-02-03T01:33:51;8.90;86.80
33271;DHT22;53180;51.344;6.152;2023-02-03T01:36:24;8.90;86.70
33271;DHT22;53180;51.344;6.152;2023-02-03T01:38:53;8.90;86.70
33271;DHT22;53180;51.344;6.152;2023-02-03T01:41:24;8.90;86.50
33271;DHT22;53180;51.344;6.152;2023-02-03T01:43:55;9.00;86.60
33271;DHT22;53180;51.344;6.152;2023-02-03T01:46:27;8.90;86.50
33271;DHT22;53180;51.344;6.152;2023-02-03T01:49:04;8.90;86.60
33271;DHT22;53180;51.344;6.152;2023-02-03T01:51:38;8.90;86.50
33271;DHT22;53180;51.344;6.152;2023-02-03T01:54:10;8.90;86.50
33271;DHT22;53180;51.344;6.152;2023-02-03T01:56:44;9.00;86.50
33271;DHT22;53180;51.344;6.152;2023-02-03T01:59:16;8.90;86.60
33271;DHT22;53180;51.344;6.152;2023-02-03T02:01:46;8.90;86.50
33271;DHT22;53180;51.344;6.152;2023-02-03T02:04:15;8.90;86.30
33271;DHT22;53180;51.344;6.152;2023-02-03T02:06:45;8.90;86.30
33271;DHT22;53180;51.344;6.152;2023-02-03T02:09:15;8.90;86.30
33271;DHT22;53180;51.344;6.152;2023-02-03T02:11:43;8.90;86.30
33271;DHT22;53180;51.344;6.152;2023-02-03T02:14:11;8.90;86.20
33271;DHT22;53180;51.344;6.152;2023-02-03T02:16:44;8.90;86.20
33271;DHT22;53180;51.344;6.152;2023-02-03T02:19:41;8.90;86.20
33271;DHT22;53180;51.344;6.152;2023-02-03T02:22:29;8.90;86.20
33271;DHT22;53180;51.344;6.152;2023-02-03T02:25:46;9.00;85.90
33271;DHT22;53180;51.344;6.152;2023-02-03T02:28:41;8.90;85.90
33271;DHT22;53180;51.344;6.152;2023-02-03T02:32:00;8.90;85.80
33271;DHT22;53180;51.344;6.152;2023-02-03T02:34:43;8.90;85.90
33271;DHT22;53180;51.344;6.152;2023-02-03T02:37:21;8.90;86.00
33271;DHT22;53180;51.344;6.152;2023-02-03T02:39:58;8.90;85.80
33271;DHT22;53180;51.344;6.152;2023-02-03T02:42:38;8.90;85.80
33271;DHT22;53180;51.344;6.152;2023-02-03T02:45:18;9.00;85.70
33271;DHT22;53180;51.344;6.152;2023-02-03T02:47:56;9.00;85.60
33271;DHT22;53180;51.344;6.152;2023-02-03T02:50:32;9.00;85.50
33271;DHT22;53180;51.344;6.152;2023-02-03T02:53:04;8.90;85.70
33271;DHT22;53180;51.344;6.152;2023-02-03T02:55:35;9.00;85.50
33271;DHT22;53180;51.344;6.152;2023-02-03T02:58:07;8.90;85.70
33271;DHT22;53180;51.344;6.152;2023-02-03T03:00:39;9.00;85.50
33271;DHT22;53180;51.344;6.152;2023-02-03T03:03:13;9.00;85.50
33271;DHT22;53180;51.344;6.152;2023-02-03T03:05:47;8.90;85.60
33271;DHT22;53180;51.344;6.152;2023-02-03T03:08:19;8.90;85.60
33271;DHT22;53180;51.344;6.152;2023-02-03T03:10:52;8.90;85.50
33271;DHT22;53180;51.344;6.152;2023-02-03T03:13:26;8.90;85.60
33271;DHT22;53180;51.344;6.152;2023-02-03T03:15:59;8.90;85.60
33271;DHT22;53180;51.344;6.152;2023-02-03T03:18:32;8.90;85.60
33271;DHT22;53180;51.344;6.152;2023-02-03T03:21:04;8.90;85.50
33271;DHT22;53180;51.344;6.152;2023-02-03T03:23:35;9.00;85.20
33271;DHT22;53180;51.344;6.152;2023-02-03T03:26:10;9.00;85.30
33271;DHT22;53180;51.344;6.152;2023-02-03T03:28:45;9.00;85.30
33271;DHT22;53180;51.344;6.152;2023-02-03T03:31:16;9.00;85.20
33271;DHT22;53180;51.344;6.152;2023-02-03T03:33:48;9.00;85.20
33271;DHT22;53180;51.344;6.152;2023-02-03T03:36:23;8.90;85.10
33271;DHT22;53180;51.344;6.152;2023-02-03T03:38:56;9.00;84.90
33271;DHT22;53180;51.344;6.152;2023-02-03T03:41:37;9.00;84.90
33271;DHT22;53180;51.344;6.152;2023-02-03T03:44:12;9.00;84.90
33271;DHT22;53180;51.344;6.152;2023-02-03T03:46:47;9.00;85.00
33271;DHT22;53180;51.344;6.152;2023-02-03T03:49:22;9.00;85.00
33271;DHT22;53180;51.344;6.152;2023-02-03T03:51:56;9.00;85.00
33271;DHT22;53180;51.344;6.152;2023-02-03T03:54:29;9.00;85.00
33271;DHT22;53180;51.344;6.152;2023-02-03T03:57:01;8.90;84.90
33271;DHT22;53180;51.344;6.152;2023-02-03T03:59:36;9.00;84.90
33271;DHT22;53180;51.344;6.152;2023-02-03T04:02:06;8.90;85.10
33271;DHT22;53180;51.344;6.152;2023-02-03T04:04:37;8.90;85.00
33271;DHT22;53180;51.344;6.152;2023-02-03T04:07:06;8.90;84.90
33271;DHT22;53180;51.344;6.152;2023-02-03T04:09:35;8.90;85.10
33271;DHT22;53180;51.344;6.152;2023-02-03T04:12:04;8.90;84.90
33271;DHT22;53180;51.344;6.152;2023-02-03T04:14:34;8.90;85.00
33271;DHT22;53180;51.344;6.152;2023-02-03T04:17:04;8.90;84.90
33271;DHT22;53180;51.344;6.152;2023-02-03T04:19:33;8.90;84.80
33271;DHT22;53180;51.344;6.152;2023-02-03T04:22:03;8.90;84.80
33271;DHT22;53180;51.344;6.152;2023-02-03T04:24:32;8.90;84.70
33271;DHT22;53180;51.344;6.152;2023-02-03T04:27:00;8.90;84.60
33271;DHT22;53180;51.344;6.152;2023-02-03T04:29:31;8.90;84.60
33271;DHT22;53180;51.344;6.152;2023-02-03T04:31:59;9.00;84.60
33271;DHT22;53180;51.344;6.152;2023-02-03T04:34:27;9.00;84.40
33271;DHT22;53180;51.344;6.152;2023-02-03T04:36:56;9.00;84.50
33271;DHT22;53180;51.344;6.152;2023-02-03T04:39:25;9.00;84.40
33271;DHT22;53180;51.344;6.152;2023-02-03T04:41:54;9.00;84.30
33271;DHT22;53180;51.344;6.152;2023-02-03T04:44:22;9.00;84.40
33271;DHT22;53180;51.344;6.152;2023-02-03T04:46:51;9.00;84.40
33271;DHT22;53180;51.344;6.152;2023-02-03T04:49:19;9.00;84.40
33271;DHT22;53180;51.344;6.152;2023-02-03T04:51:48;9.00;84.50
33271;DHT22;53180;51.344;6.152;2023-02-03T04:54:16;9.00;84.70
33271;DHT22;53180;51.344;6.152;2023-02-03T04:56:46;8.90;84.70
33271;DHT22;53180;51.344;6.152;2023-02-03T04:59:14;9.00;84.60
33271;DHT22;53180;51.344;6.152;2023-02-03T05:01:43;9.00;84.50
33271;DHT22;53180;51.344;6.152;2023-02-03T05:04:11;9.00;84.60
33271;DHT22;53180;51.344;6.152;2023-02-03T05:06:39;9.00;84.60
33271;DHT22;53180;51.344;6.152;2023-02-03T05:09:08;9.00;84.60
33271;DHT22;53180;51.344;6.152;2023-02-03T05:11:36;9.00;84.60
33271;DHT22;53180;51.344;6.152;2023-02-03T05:14:06;9.00;84.50
33271;DHT22;53180;51.344;6.152;2023-02-03T05:16:35;9.00;84.50
33271;DHT22;53180;51.344;6.152;2023-02-03T05:19:03;9.00;84.60
33271;DHT22;53180;51.344;6.152;2023-02-03T05:21:31;9.00;84.40
33271;DHT22;53180;51.344;6.152;2023-02-03T05:24:00;9.00;84.40
33271;DHT22;53180;51.344;6.152;2023-02-03T05:26:33;9.00;84.50
33271;DHT22;53180;51.344;6.152;2023-02-03T05:29:01;9.00;84.40
33271;DHT22;53180;51.344;6.152;2023-02-03T05:31:31;9.00;84.40
33271;DHT22;53180;51.344;6.152;2023-02-03T05:34:00;8.90;84.50
33271;DHT22;53180;51.344;6.152;2023-02-03T05:36:29;9.00;84.40
33271;DHT22;53180;51.344;6.152;2023-02-03T05:38:57;9.00;84.20
33271;DHT22;53180;51.344;6.152;2023-02-03T05:41:26;9.00;84.20
33271;DHT22;53180;51.344;6.152;2023-02-03T05:44:11;9.00;83.90
33271;DHT22;53180;51.344;6.152;2023-02-03T05:46:41;9.10;84.00
33271;DHT22;53180;51.344;6.152;2023-02-03T05:49:09;9.00;83.80
33271;DHT22;53180;51.344;6.152;2023-02-03T05:51:38;9.00;83.90
33271;DHT22;53180;51.344;6.152;2023-02-03T05:54:07;9.10;83.70
33271;DHT22;53180;51.344;6.152;2023-02-03T05:56:36;9.10;83.50
33271;DHT22;53180;51.344;6.152;2023-02-03T05:59:05;9.10;83.60
33271;DHT22;53180;51.344;6.152;2023-02-03T06:01:34;9.10;83.60
33271;DHT22;53180;51.344;6.152;2023-02-03T06:04:05;9.10;83.40
33271;DHT22;53180;51.344;6.152;2023-02-03T06:06:33;9.10;83.60
33271;DHT22;53180;51.344;6.152;2023-02-03T06:09:04;9.10;83.70
33271;DHT22;53180;51.344;6.152;2023-02-03T06:11:34;9.10;83.70
33271;DHT22;53180;51.344;6.152;2023-02-03T06:14:03;9.10;83.80
33271;DHT22;53180;51.344;6.152;2023-02-03T06:16:32;9.10;83.70
33271;DHT22;53180;51.344;6.152;2023-02-03T06:19:00;9.10;83.70
33271;DHT22;53180;51.344;6.152;2023-02-03T06:21:30;9.00;83.70
33271;DHT22;53180;51.344;6.152;2023-02-03T06:23:58;9.10;83.60
33271;DHT22;53180;51.344;6.152;2023-02-03T06:26:26;9.10;83.60
33271;DHT22;53180;51.344;6.152;2023-02-03T06:28:55;9.10;83.50
33271;DHT22;53180;51.344;6.152;2023-02-03T06:31:23;9.10;83.40
33271;DHT22;53180;51.344;6.152;2023-02-03T06:33:52;9.10;83.50
33271;DHT22;53180;51.344;6.152;2023-02-03T06:36:23;9.10;83.60
33271;DHT22;53180;51.344;6.152;2023-02-03T06:38:52;9.10;83.40
33271;DHT22;53180;51.344;6.152;2023-02-03T06:41:21;9.10;83.60
33271;DHT22;53180;51.344;6.152;2023-02-03T06:43:53;9.10;83.60
33271;DHT22;53180;51.344;6.152;2023-02-03T06:46:21;9.20;83.40
33271;DHT22;53180;51.344;6.152;2023-02-03T06:48:54;9.10;83.50
33271;DHT22;53180;51.344;6.152;2023-02-03T06:51:22;9.10;83.30
33271;DHT22;53180;51.344;6.152;2023-02-03T06:53:52;9.10;83.30
33271;DHT22;53180;51.344;6.152;2023-02-03T06:56:21;9.20;83.40
33271;DHT22;53180;51.344;6.152;2023-02-03T06:58:49;9.20;83.50
33271;DHT22;53180;51.344;6.152;2023-02-03T07:01:18;9.10;83.40
33271;DHT22;53180;51.344;6.152;2023-02-03T07:03:46;9.10;83.50
33271;DHT22;53180;51.344;6.152;2023-02-03T07:06:15;9.20;83.40
33271;DHT22;53180;51.344;6.152;2023-02-03T07:08:43;9.10;83.30
33271;DHT22;53180;51.344;6.152;2023-02-03T07:11:13;9.10;83.30
33271;DHT22;53180;51.344;6.152;2023-02-03T07:13:41;9.20;83.30
33271;DHT22;53180;51.344;6.152;2023-02-03T07:16:10;9.10;83.20
33271;DHT22;53180;51.344;6.152;2023-02-03T07:18:38;9.20;83.10
33271;DHT22;53180;51.344;6.152;2023-02-03T07:21:14;9.20;83.20
33271;DHT22;53180;51.344;6.152;2023-02-03T07:23:45;9.10;83.30
33271;DHT22;53180;51.344;6.152;2023-02-03T07:26:16;9.20;83.20
33271;DHT22;53180;51.344;6.152;2023-02-03T07:28:45;9.10;83.20
33271;DHT22;53180;51.344;6.152;2023-02-03T07:31:14;9.20;83.00
33271;DHT22;53180;51.344;6.152;2023-02-03T07:33:42;9.20;83.10
33271;DHT22;53180;51.344;6.152;2023-02-03T07:36:11;9.20;83.10
33271;DHT22;53180;51.344;6.152;2023-02-03T07:38:39;9.20;83.20
33271;DHT22;53180;51.344;6.152;2023-02-03T07:41:08;9.20;83.20
33271;DHT22;53180;51.344;6.152;2023-02-03T07:43:37;9.20;83.10
33271;DHT22;53180;51.344;6.152;2023-02-03T07:46:06;9.20;83.00
33271;DHT22;53180;51.344;6.152;2023-02-03T07:48:34;9.20;83.00
33271;DHT22;53180;51.344;6.152;2023-02-03T07:51:03;9.20;82.90
33271;DHT22;53180;51.344;6.152;2023-02-03T07:53:32;9.20;82.80
33271;DHT22;53180;51.344;6.152;2023-02-03T07:56:00;9.30;82.90
33271;DHT22;53180;51.344;6.152;2023-02-03T07:58:30;9.20;83.00
33271;DHT22;53180;51.344;6.152;2023-02-03T08:01:00;9.20;83.20
33271;DHT22;53180;51.344;6.152;2023-02-03T08:03:29;9.20;83.10
33271;DHT22;53180;51.344;6.152;2023-02-03T08:05:57;9.20;83.10
33271;DHT22;53180;51.344;6.152;2023-02-03T08:08:25;9.20;82.90
33271;DHT22;53180;51.344;6.152;2023-02-03T08:10:54;9.20;83.10
33271;DHT22;53180;51.344;6.152;2023-02-03T08:13:23;9.30;83.00
33271;DHT22;53180;51.344;6.152;2023-02-03T08:15:52;9.30;82.90
33271;DHT22;53180;51.344;6.152;2023-02-03T08:18:21;9.20;83.10
33271;DHT22;53180;51.344;6.152;2023-02-03T08:20:50;9.30;83.00
33271;DHT22;53180;51.344;6.152;2023-02-03T08:23:18;9.30;83.00
33271;DHT22;53180;51.344;6.152;2023-02-03T08:25:50;9.30;83.10
33271;DHT22;53180;51.344;6.152;2023-02-03T08:28:19;9.30;83.10
33271;DHT22;53180;51.344;6.152;2023-02-03T08:30:47;9.30;83.20
33271;DHT22;53180;51.344;6.152;2023-02-03T08:33:16;9.30;83.00
33271;DHT22;53180;51.344;6.152;2023-02-03T08:35:47;9.30;83.00
33271;DHT22;53180;51.344;6.152;2023-02-03T08:38:18;9.30;83.00
33271;DHT22;53180;51.344;6.152;2023-02-03T08:40:47;9.30;83.30
33271;DHT22;53180;51.344;6.152;2023-02-03T08:43:16;9.30;83.40
33271;DHT22;53180;51.344;6.152;2023-02-03T08:45:44;9.30;83.60
33271;DHT22;53180;51.344;6.152;2023-02-03T08:48:13;9.30;84.10
33271;DHT22;53180;51.344;6.152;2023-02-03T08:50:42;9.20;84.50
33271;DHT22;53180;51.344;6.152;2023-02-03T08:53:19;9.20;84.70
33271;DHT22;53180;51.344;6.152;2023-02-03T08:55:47;9.20;85.00
33271;DHT22;53180;51.344;6.152;2023-02-03T08:58:16;9.20;84.90
33271;DHT22;53180;51.344;6.152;2023-02-03T09:00:44;9.20;84.60
33271;DHT22;53180;51.344;6.152;2023-02-03T09:03:15;9.20;84.80
33271;DHT22;53180;51.344;6.152;2023-02-03T09:05:44;9.20;84.60
33271;DHT22;53180;51.344;6.152;2023-02-03T09:08:12;9.20;84.60
33271;DHT22;53180;51.344;6.152;2023-02-03T09:10:42;9.20;84.50
33271;DHT22;53180;51.344;6.152;2023-02-03T09:13:10;9.20;84.40
33271;DHT22;53180;51.344;6.152;2023-02-03T09:15:39;9.30;84.50
33271;DHT22;53180;51.344;6.152;2023-02-03T09:18:07;9.30;84.50
33271;DHT22;53180;51.344;6.152;2023-02-03T09:20:35;9.20;84.70
33271;DHT22;53180;51.344;6.152;2023-02-03T09:23:04;9.20;84.80
33271;DHT22;53180;51.344;6.152;2023-02-03T09:25:32;9.20;84.90
33271;DHT22;53180;51.344;6.152;2023-02-03T09:28:02;9.20;84.90
33271;DHT22;53180;51.344;6.152;2023-02-03T09:30:31;9.20;85.10
33271;DHT22;53180;51.344;6.152;2023-02-03T09:32:59;9.20;85.10
33271;DHT22;53180;51.344;6.152;2023-02-03T09:35:28;9.20;85.20
33271;DHT22;53180;51.344;6.152;2023-02-03T09:37:57;9.20;85.20
33271;DHT22;53180;51.344;6.152;2023-02-03T09:40:31;9.30;85.30
33271;DHT22;53180;51.344;6.152;2023-02-03T09:43:11;9.20;85.20
33271;DHT22;53180;51.344;6.152;2023-02-03T09:45:53;9.20;85.40
33271;DHT22;53180;51.344;6.152;2023-02-03T09:48:23;9.20;85.20
33271;DHT22;53180;51.344;6.152;2023-02-03T09:50:57;9.20;85.20
33271;DHT22;53180;51.344;6.152;2023-02-03T09:53:29;9.30;85.20
33271;DHT22;53180;51.344;6.152;2023-02-03T09:56:00;9.30;85.30
33271;DHT22;53180;51.344;6.152;2023-02-03T09:58:32;9.30;85.20
33271;DHT22;53180;51.344;6.152;2023-02-03T10:01:03;9.30;85.00
33271;DHT22;53180;51.344;6.152;2023-02-03T10:03:38;9.30;85.00
33271;DHT22;53180;51.344;6.152;2023-02-03T10:06:18;9.40;85.00
33271;DHT22;53180;51.344;6.152;2023-02-03T10:09:11;9.40;84.90
33271;DHT22;53180;51.344;6.152;2023-02-03T10:11:57;9.40;84.80
33271;DHT22;53180;51.344;6.152;2023-02-03T10:15:02;9.50;84.80
33271;DHT22;53180;51.344;6.152;2023-02-03T10:17:46;9.50;84.80
33271;DHT22;53180;51.344;6.152;2023-02-03T10:20:22;9.50;84.70
33271;DHT22;53180;51.344;6.152;2023-02-03T10:22:55;9.50;84.60
33271;DHT22;53180;51.344;6.152;2023-02-03T10:25:35;9.60;84.60
33271;DHT22;53180;51.344;6.152;2023-02-03T10:28:13;9.60;84.50
33271;DHT22;53180;51.344;6.152;2023-02-03T10:30:47;9.70;84.50
33271;DHT22;53180;51.344;6.152;2023-02-03T10:33:17;9.70;84.20
33271;DHT22;53180;51.344;6.152;2023-02-03T10:35:48;9.70;84.10
33271;DHT22;53180;51.344;6.152;2023-02-03T10:38:29;9.80;84.20
33271;DHT22;53180;51.344;6.152;2023-02-03T10:41:05;9.80;83.90
33271;DHT22;53180;51.344;6.152;2023-02-03T10:43:34;9.80;83.90
33271;DHT22;53180;51.344;6.152;2023-02-03T10:46:20;9.90;83.80
33271;DHT22;53180;51.344;6.152;2023-02-03T10:48:54;9.90;83.70
33271;DHT22;53180;51.344;6.152;2023-02-03T10:51:26;10.00;83.80
33271;DHT22;53180;51.344;6.152;2023-02-03T10:53:57;10.00;83.60
33271;DHT22;53180;51.344;6.152;2023-02-03T10:56:29;10.00;83.70
33271;DHT22;53180;51.344;6.152;2023-02-03T10:58:59;10.00;83.70
33271;DHT22;53180;51.344;6.152;2023-02-03T11:01:40;10.00;83.80
33271;DHT22;53180;51.344;6.152;2023-02-03T11:04:23;10.00;83.70
33271;DHT22;53180;51.344;6.152;2023-02-03T11:06:54;10.00;83.60
33271;DHT22;53180;51.344;6.152;2023-02-03T11:09:27;10.00;83.60
33271;DHT22;53180;51.344;6.152;2023-02-03T11:12:16;10.10;83.60
33271;DHT22;53180;51.344;6.152;2023-02-03T11:14:47;10.10;83.60
33271;DHT22;53180;51.344;6.152;2023-02-03T11:17:18;10.00;83.60
33271;DHT22;53180;51.344;6.152;2023-02-03T11:19:50;10.10;83.50
33271;DHT22;53180;51.344;6.152;2023-02-03T11:22:28;10.10;83.50
33271;DHT22;53180;51.344;6.152;2023-02-03T11:24:58;10.10;83.50
33271;DHT22;53180;51.344;6.152;2023-02-03T11:27:31;10.10;83.30
33271;DHT22;53180;51.344;6.152;2023-02-03T11:30:10;10.20;83.40
33271;DHT22;53180;51.344;6.152;2023-02-03T11:32:47;10.20;83.40
33271;DHT22;53180;51.344;6.152;2023-02-03T11:35:17;10.20;83.50
33271;DHT22;53180;51.344;6.152;2023-02-03T11:37:51;10.20;83.50
33271;DHT22;53180;51.344;6.152;2023-02-03T11:40:26;10.20;83.60
33271;DHT22;53180;51.344;6.152;2023-02-03T11:43:00;10.20;83.50
33271;DHT22;53180;51.344;6.152;2023-02-03T11:45:36;10.20;83.40
33271;DHT22;53180;51.344;6.152;2023-02-03T11:48:21;10.20;83.50
33271;DHT22;53180;51.344;6.152;2023-02-03T11:50:59;10.20;83.50
33271;DHT22;53180;51.344;6.152;2023-02-03T11:53:42;10.20;83.60
33271;DHT22;53180;51.344;6.152;2023-02-03T11:56:31;10.20;83.40
33271;DHT22;53180;51.344;6.152;2023-02-03T11:59:16;10.20;83.40
33271;DHT22;53180;51.344;6.152;2023-02-03T12:02:36;10.20;83.50
33271;DHT22;53180;51.344;6.152;2023-02-03T12:05:38;10.20;83.60
33271;DHT22;53180;51.344;6.152;2023-02-03T12:08:21;10.20;83.70
33271;DHT22;53180;51.344;6.152;2023-02-03T12:11:02;10.20;83.60
33271;DHT22;53180;51.344;6.152;2023-02-03T12:13:54;10.20;83.60
33271;DHT22;53180;51.344;6.152;2023-02-03T12:16:56;10.20;83.50
33271;DHT22;53180;51.344;6.152;2023-02-03T12:19:41;10.30;83.60
33271;DHT22;53180;51.344;6.152;2023-02-03T12:22:22;10.30;83.50
33271;DHT22;53180;51.344;6.152;2023-02-03T12:24:58;10.30;83.40
33271;DHT22;53180;51.344;6.152;2023-02-03T12:27:40;10.30;83.30
33271;DHT22;53180;51.344;6.152;2023-02-03T12:30:19;10.30;83.20
33271;DHT22;53180;51.344;6.152;2023-02-03T12:32:55;10.30;83.50
33271;DHT22;53180;51.344;6.152;2023-02-03T12:35:28;10.30;83.30
33271;DHT22;53180;51.344;6.152;2023-02-03T12:38:06;10.40;83.50
33271;DHT22;53180;51.344;6.152;2023-02-03T12:40:42;10.40;83.40
33271;DHT22;53180;51.344;6.152;2023-02-03T12:43:21;10.40;83.40
33271;DHT22;53180;51.344;6.152;2023-02-03T12:45:54;10.40;83.30
33271;DHT22;53180;51.344;6.152;2023-02-03T12:48:30;10.40;83.40
33271;DHT22;53180;51.344;6.152;2023-02-03T12:51:05;10.40;83.30
33271;DHT22;53180;51.344;6.152;2023-02-03T12:53:45;10.40;83.30
33271;DHT22;53180;51.344;6.152;2023-02-03T12:56:22;10.40;83.20
33271;DHT22;53180;51.344;6.152;2023-02-03T12:58:56;10.40;83.50
33271;DHT22;53180;51.344;6.152;2023-02-03T13:01:32;10.40;83.40
33271;DHT22;53180;51.344;6.152;2023-02-03T13:04:07;10.40;83.60
33271;DHT22;53180;51.344;6.152;2023-02-03T13:06:43;10.40;83.40
33271;DHT22;53180;51.344;6.152;2023-02-03T13:09:26;10.50;83.20
33271;DHT22;53180;51.344;6.152;2023-02-03T13:12:02;10.50;83.20
33271;DHT22;53180;51.344;6.152;2023-02-03T13:14:37;10.50;83.20
33271;DHT22;53180;51.344;6.152;2023-02-03T13:17:14;10.50;83.00
33271;DHT22;53180;51.344;6.152;2023-02-03T13:19:48;10.60;83.00
33271;DHT22;53180;51.344;6.152;2023-02-03T13:22:19;10.60;83.00
33271;DHT22;53180;51.344;6.152;2023-02-03T13:24:54;10.60;82.90
33271;DHT22;53180;51.344;6.152;2023-02-03T13:27:41;10.50;83.00
33271;DHT22;53180;51.344;6.152;2023-02-03T13:30:23;10.50;83.20
33271;DHT22;53180;51.344;6.152;2023-02-03T13:36:52;10.60;83.10
33271;DHT22;53180;51.344;6.152;2023-02-03T13:39:51;10.60;83.10
33271;DHT22;53180;51.344;6.152;2023-02-03T13:42:26;10.60;83.20
33271;DHT22;53180;51.344;6.152;2023-02-03T13:44:56;10.70;82.90
33271;DHT22;53180;51.344;6.152;2023-02-03T13:47:28;10.70;82.70
33271;DHT22;53180;51.344;6.152;2023-02-03T13:49:58;10.70;82.70
33271;DHT22;53180;51.344;6.152;2023-02-03T13:52:33;10.80;82.60
33271;DHT22;53180;51.344;6.152;2023-02-03T13:55:06;10.80;82.50
33271;DHT22;53180;51.344;6.152;2023-02-03T13:57:36;10.80;82.70
33271;DHT22;53180;51.344;6.152;2023-02-03T14:00:29;10.90;82.60
33271;DHT22;53180;51.344;6.152;2023-02-03T14:03:18;10.90;82.50
33271;DHT22;53180;51.344;6.152;2023-02-03T14:05:50;10.90;82.40
33271;DHT22;53180;51.344;6.152;2023-02-03T14:08:50;10.90;82.50
33271;DHT22;53180;51.344;6.152;2023-02-03T14:11:40;10.90;82.00
33271;DHT22;53180;51.344;6.152;2023-02-03T14:14:44;11.00;82.20
33271;DHT22;53180;51.344;6.152;2023-02-03T14:18:03;10.90;82.30
33271;DHT22;53180;51.344;6.152;2023-02-03T14:21:12;10.90;82.10
33271;DHT22;53180;51.344;6.152;2023-02-03T14:23:54;10.90;82.10
33271;DHT22;53180;51.344;6.152;2023-02-03T14:26:35;10.90;82.20
33271;DHT22;53180;51.344;6.152;2023-02-03T14:29:10;10.90;82.50
33271;DHT22;53180;51.344;6.152;2023-02-03T14:31:54;10.90;82.20
33271;DHT22;53180;51.344;6.152;2023-02-03T14:34:30;10.90;82.20
33271;DHT22;53180;51.344;6.152;2023-02-03T14:37:11;10.90;82.40
33271;DHT22;53180;51.344;6.152;2023-02-03T14:43:15;10.90;82.00
33271;DHT22;53180;51.344;6.152;2023-02-03T14:46:19;10.90;81.90
33271;DHT22;53180;51.344;6.152;2023-02-03T14:49:15;10.90;81.60
33271;DHT22;53180;51.344;6.152;2023-02-03T14:52:01;10.90;81.50
33271;DHT22;53180;51.344;6.152;2023-02-03T14:54:58;10.90;81.40
33271;DHT22;53180;51.344;6.152;2023-02-03T14:57:39;10.90;81.30
33271;DHT22;53180;51.344;6.152;2023-02-03T15:00:26;10.90;81.50
33271;DHT22;53180;51.344;6.152;2023-02-03T15:03:19;10.80;81.40
33271;DHT22;53180;51.344;6.152;2023-02-03T15:05:54;10.80;81.40
33271;DHT22;53180;51.344;6.152;2023-02-03T15:08:45;10.80;81.40
33271;DHT22;53180;51.344;6.152;2023-02-03T15:11:23;10.70;81.20
33271;DHT22;53180;51.344;6.152;2023-02-03T15:13:54;10.70;81.70
33271;DHT22;53180;51.344;6.152;2023-02-03T15:16:24;10.60;82.50
33271;DHT22;53180;51.344;6.152;2023-02-03T15:18:56;10.60;83.30
33271;DHT22;53180;51.344;6.152;2023-02-03T15:21:25;10.50;84.30
33271;DHT22;53180;51.344;6.152;2023-02-03T15:23:54;10.30;85.60
33271;DHT22;53180;51.344;6.152;2023-02-03T15:26:23;10.20;86.30
33271;DHT22;53180;51.344;6.152;2023-02-03T15:28:54;10.10;87.20
33271;DHT22;53180;51.344;6.152;2023-02-03T15:31:28;10.00;87.50
33271;DHT22;53180;51.344;6.152;2023-02-03T15:34:08;9.90;88.10
33271;DHT22;53180;51.344;6.152;2023-02-03T15:36:44;9.80;88.70
33271;DHT22;53180;51.344;6.152;2023-02-03T15:39:20;9.80;88.90
33271;DHT22;53180;51.344;6.152;2023-02-03T15:41:57;9.70;88.60
33271;DHT22;53180;51.344;6.152;2023-02-03T15:44:30;9.70;88.80
33271;DHT22;53180;51.344;6.152;2023-02-03T15:47:02;9.70;88.90
33271;DHT22;53180;51.344;6.152;2023-02-03T15:49:35;9.60;88.90
33271;DHT22;53180;51.344;6.152;2023-02-03T15:52:09;9.60;89.00
33271;DHT22;53180;51.344;6.152;2023-02-03T15:54:42;9.60;89.00
33271;DHT22;53180;51.344;6.152;2023-02-03T15:57:16;9.60;88.80
33271;DHT22;53180;51.344;6.152;2023-02-03T15:59:51;9.60;89.00
33271;DHT22;53180;51.344;6.152;2023-02-03T16:02:27;9.50;88.90
33271;DHT22;53180;51.344;6.152;2023-02-03T16:05:02;9.50;88.80
33271;DHT22;53180;51.344;6.152;2023-02-03T16:07:31;9.50;88.70
33271;DHT22;53180;51.344;6.152;2023-02-03T16:10:00;9.50;88.40
33271;DHT22;53180;51.344;6.152;2023-02-03T16:12:29;9.50;88.20
33271;DHT22;53180;51.344;6.152;2023-02-03T16:15:00;9.40;88.40
33271;DHT22;53180;51.344;6.152;2023-02-03T16:17:30;9.50;88.20
33271;DHT22;53180;51.344;6.152;2023-02-03T16:23:05;9.40;88.00
33271;DHT22;53180;51.344;6.152;2023-02-03T16:25:42;9.40;87.90
33271;DHT22;53180;51.344;6.152;2023-02-03T16:28:15;9.30;87.70
33271;DHT22;53180;51.344;6.152;2023-02-03T16:31:07;9.40;87.30
33271;DHT22;53180;51.344;6.152;2023-02-03T16:33:55;9.40;87.30
33271;DHT22;53180;51.344;6.152;2023-02-03T16:36:43;9.30;87.20